createdAt,value
2018-04-18T00:00:56.095Z,5.90
2018-04-18T00:03:29.481Z,6.23
2018-04-18T00:06:02.132Z,5.10
2018-04-18T00:08:35.044Z,6.80
2018-04-18T00:11:08.385Z,5.50
2018-04-18T00:13:41.782Z,5.80
2018-04-18T00:16:14.492Z,5.90
2018-04-18T00:18:47.413Z,5.57
2018-04-18T00:21:19.837Z,5.43
2018-04-18T00:23:52.356Z,5.50
2018-04-18T00:26:25.210Z,6.33
2018-04-18T00:28:57.928Z,5.33
2018-04-18T00:31:30.392Z,5.70
2018-04-18T00:34:03.841Z,5.40
2018-04-18T00:36:38.559Z,6.07
2018-04-18T00:39:11.533Z,5.53
2018-04-18T00:41:45.131Z,5.00
2018-04-18T00:44:17.889Z,5.60
2018-04-18T00:46:51.620Z,5.17
2018-04-18T00:49:24.373Z,4.70
2018-04-18T00:51:56.843Z,4.83
2018-04-18T00:54:29.205Z,5.10
2018-04-18T00:57:01.741Z,4.43
2018-04-18T00:59:34.853Z,4.67
2018-04-18T01:02:07.687Z,4.47
2018-04-18T01:04:41.014Z,4.70
2018-04-18T01:07:13.419Z,5.10
2018-04-18T01:09:45.950Z,5.20
2018-04-18T01:12:18.364Z,4.60
2018-04-18T01:14:51.831Z,4.87
2018-04-18T01:17:24.953Z,4.73
2018-04-18T01:19:57.832Z,4.67
2018-04-18T01:22:30.386Z,5.13
2018-04-18T01:25:03.298Z,5.93
2018-04-18T01:27:35.738Z,4.90
2018-04-18T01:30:08.516Z,4.80
2018-04-18T01:32:42.040Z,5.10
2018-04-18T01:35:16.168Z,5.60
2018-04-18T01:37:48.973Z,4.70
2018-04-18T01:40:21.730Z,5.10
2018-04-18T01:42:54.262Z,5.10
2018-04-18T01:45:27.162Z,5.33
2018-04-18T01:47:59.974Z,5.10
2018-04-18T01:50:32.659Z,4.80
2018-04-18T01:53:06.019Z,4.97
2018-04-18T01:55:38.814Z,4.80
2018-04-18T01:58:11.175Z,5.77
2018-04-18T02:00:44.336Z,5.30
2018-04-18T02:03:17.083Z,5.63
2018-04-18T02:05:49.489Z,4.97
2018-04-18T02:08:22.947Z,5.97
2018-04-18T02:10:55.422Z,5.57
2018-04-18T02:13:28.729Z,5.00
2018-04-18T02:16:01.482Z,6.27
2018-04-18T02:18:34.012Z,5.20
2018-04-18T02:21:07.515Z,5.23
2018-04-18T02:23:40.309Z,4.20
2018-04-18T02:26:12.775Z,5.97
2018-04-18T02:28:45.372Z,5.27
2018-04-18T02:31:18.760Z,5.10
2018-04-18T02:33:52.688Z,4.77
2018-04-18T02:36:25.932Z,4.97
2018-04-18T02:38:58.568Z,5.00
2018-04-18T02:41:31.406Z,4.70
2018-04-18T02:44:04.165Z,4.40
2018-04-18T02:46:37.481Z,5.87
2018-04-18T02:49:10.632Z,5.03
2018-04-18T02:51:43.601Z,5.40
2018-04-18T02:54:16.032Z,4.30
2018-04-18T02:56:49.288Z,4.73
2018-04-18T02:59:22.520Z,5.30
2018-04-18T03:01:55.253Z,6.00
2018-04-18T03:04:27.781Z,5.20
2018-04-18T03:07:00.667Z,4.90
2018-04-18T03:09:34.577Z,5.17
2018-04-18T03:12:08.973Z,5.60
2018-04-18T03:14:42.473Z,4.47
2018-04-18T03:17:15.140Z,5.67
2018-04-18T03:19:48.636Z,4.50
2018-04-18T03:22:21.303Z,5.73
2018-04-18T03:24:54.629Z,4.57
2018-04-18T03:27:27.824Z,5.13
2018-04-18T03:30:00.553Z,5.17
2018-04-18T03:32:33.979Z,4.80
2018-04-18T03:35:07.599Z,5.60
2018-04-18T03:37:40.481Z,5.47
2018-04-18T03:40:13.697Z,4.83
2018-04-18T03:42:47.900Z,5.53
2018-04-18T03:45:21.263Z,5.30
2018-04-18T03:48:01.659Z,6.07
2018-04-18T03:50:34.376Z,5.90
2018-04-18T03:53:07.619Z,6.33
2018-04-18T03:55:40.041Z,6.20
2018-04-18T03:58:13.992Z,5.90
2018-04-18T04:00:46.917Z,6.13
2018-04-18T04:03:19.272Z,6.33
2018-04-18T04:05:51.726Z,5.90
2018-04-18T04:08:24.504Z,6.23
2018-04-18T04:10:58.511Z,5.83
2018-04-18T04:13:32.398Z,6.27
2018-04-18T04:16:05.493Z,6.37
2018-04-18T04:18:56.719Z,5.47
2018-04-18T04:21:49.143Z,6.23
2018-04-18T04:24:34.629Z,6.73
2018-04-18T04:27:07.935Z,7.10
2018-04-18T04:29:40.450Z,7.00
2018-04-18T04:32:12.997Z,8.27
2018-04-18T04:34:46.434Z,7.20
2018-04-18T04:37:20.567Z,7.90
2018-04-18T04:39:53.345Z,7.37
2018-04-18T04:42:27.357Z,7.93
2018-04-18T04:45:00.379Z,6.50
2018-04-18T04:47:33.228Z,6.33
2018-04-18T04:50:06.358Z,6.63
2018-04-18T04:52:39.838Z,7.70
2018-04-18T04:55:12.234Z,6.77
2018-04-18T04:57:46.235Z,6.20
2018-04-18T05:00:18.895Z,7.70
2018-04-18T05:02:51.667Z,6.50
2018-04-18T05:05:24.491Z,6.90
2018-04-18T05:07:57.043Z,7.07
2018-04-18T05:10:29.447Z,8.30
2018-04-18T05:13:02.175Z,7.67
2018-04-18T05:15:34.746Z,7.70
2018-04-18T05:18:08.107Z,7.40
2018-04-18T05:20:40.895Z,7.83
2018-04-18T05:23:14.611Z,7.00
2018-04-18T05:25:48.178Z,6.30
2018-04-18T05:28:20.756Z,6.07
2018-04-18T05:30:53.203Z,6.17
2018-04-18T05:33:26.618Z,5.90
2018-04-18T05:35:59.463Z,5.23
2018-04-18T05:38:33.521Z,5.33
2018-04-18T05:41:06.109Z,4.80
2018-04-18T05:43:38.626Z,5.43
2018-04-18T05:46:11.842Z,4.73
2018-04-18T05:48:45.572Z,4.63
2018-04-18T05:51:18.279Z,4.50
2018-04-18T05:53:50.925Z,4.50
2018-04-18T05:56:23.599Z,4.47
2018-04-18T05:58:56.992Z,4.40
2018-04-18T06:01:29.765Z,4.60
2018-04-18T06:04:02.486Z,4.13
2018-04-18T06:06:35.665Z,4.77
2018-04-18T06:09:09.059Z,4.90
2018-04-18T06:11:41.492Z,4.77
2018-04-18T06:14:14.200Z,4.60
2018-04-18T06:16:46.776Z,4.20
2018-04-18T06:19:19.473Z,4.27
2018-04-18T06:21:52.047Z,4.67
2018-04-18T06:24:24.625Z,5.50
2018-04-18T06:26:57.193Z,4.33
2018-04-18T06:29:30.568Z,4.40
2018-04-18T06:32:03.161Z,4.60
2018-04-18T06:34:36.557Z,5.07
2018-04-18T06:37:09.021Z,4.57
2018-04-18T06:39:43.077Z,4.10
2018-04-18T06:42:16.745Z,4.60
2018-04-18T06:44:50.015Z,3.97
2018-04-18T06:47:22.387Z,4.20
2018-04-18T06:49:54.804Z,4.90
2018-04-18T06:52:28.091Z,3.90
2018-04-18T06:55:01.103Z,4.10
2018-04-18T06:57:33.457Z,4.70
2018-04-18T07:00:06.935Z,4.27
2018-04-18T07:02:39.725Z,3.73
2018-04-18T07:05:12.345Z,4.13
2018-04-18T07:07:44.780Z,3.30
2018-04-18T07:10:17.242Z,5.87
2018-04-18T07:12:49.620Z,5.13
2018-04-18T07:15:22.183Z,4.10
2018-04-18T07:17:54.860Z,4.50
2018-04-18T07:20:27.761Z,4.23
2018-04-18T07:23:00.993Z,3.83
2018-04-18T07:25:34.170Z,5.60
2018-04-18T07:28:07.487Z,5.33
2018-04-18T07:30:41.172Z,3.90
2018-04-18T07:33:14.850Z,5.10
2018-04-18T07:35:48.018Z,4.13
2018-04-18T07:38:21.316Z,5.07
2018-04-18T07:40:54.275Z,5.93
2018-04-18T07:43:26.997Z,4.77
2018-04-18T07:45:59.876Z,4.50
2018-04-18T07:48:32.517Z,4.70
2018-04-18T07:51:04.947Z,5.93
2018-04-18T07:53:37.692Z,5.53
2018-04-18T07:56:10.430Z,5.30
2018-04-18T07:58:42.984Z,5.70
2018-04-18T08:01:15.546Z,5.63
2018-04-18T08:03:49.646Z,4.40
2018-04-18T08:06:23.213Z,5.90
2018-04-18T08:08:56.109Z,5.53
2018-04-18T08:11:28.515Z,6.27
2018-04-18T08:14:01.110Z,6.60
2018-04-18T08:16:33.638Z,5.60
2018-04-18T08:19:06.204Z,5.90
2018-04-18T08:21:38.811Z,6.43
2018-04-18T08:24:11.354Z,5.90
2018-04-18T08:26:43.824Z,5.23
2018-04-18T08:29:16.295Z,5.63
2018-04-18T08:31:49.555Z,5.90
2018-04-18T08:34:22.400Z,5.57
2018-04-18T08:36:55.574Z,5.50
2018-04-18T08:39:28.177Z,4.70
2018-04-18T08:42:01.811Z,4.77
2018-04-18T08:44:34.471Z,4.67
2018-04-18T08:47:08.468Z,5.20
2018-04-18T08:49:41.340Z,4.37
2018-04-18T08:52:13.904Z,5.37
2018-04-18T08:54:46.744Z,5.20
2018-04-18T08:57:19.535Z,4.10
2018-04-18T08:59:52.350Z,4.60
2018-04-18T09:02:25.631Z,4.97
2018-04-18T09:04:58.583Z,4.23
2018-04-18T09:07:31.868Z,3.50
2018-04-18T09:10:04.482Z,3.47
2018-04-18T09:12:37.717Z,3.90
2018-04-18T09:15:10.557Z,5.20
2018-04-18T09:17:42.964Z,4.33
2018-04-18T09:20:15.438Z,4.13
2018-04-18T09:22:48.034Z,4.50
2018-04-18T09:25:20.530Z,4.20
2018-04-18T09:27:53.035Z,4.10
2018-04-18T09:30:25.709Z,4.27
2018-04-18T09:32:58.161Z,3.97
2018-04-18T09:35:31.495Z,4.30
2018-04-18T09:38:04.153Z,3.90
2018-04-18T09:40:37.314Z,4.10
2018-04-18T09:43:10.631Z,4.53
2018-04-18T09:45:43.983Z,3.77
2018-04-18T09:48:17.278Z,4.47
2018-04-18T09:50:49.951Z,3.43
2018-04-18T09:53:23.379Z,4.00
2018-04-18T09:55:56.697Z,4.90
2018-04-18T09:58:30.057Z,3.90
2018-04-18T10:01:02.828Z,4.30
2018-04-18T10:03:42.646Z,3.97
2018-04-18T10:06:15.201Z,4.93
2018-04-18T10:08:47.841Z,3.07
2018-04-18T10:11:20.953Z,3.40
2018-04-18T10:13:54.193Z,3.40
2018-04-18T10:16:27.191Z,2.90
2018-04-18T10:19:00.111Z,3.07
2018-04-18T10:21:32.663Z,3.23
2018-04-18T10:24:05.116Z,3.50
2018-04-18T10:26:38.383Z,2.77
2018-04-18T10:29:11.221Z,3.47
2018-04-18T10:31:44.521Z,3.20
2018-04-18T10:34:17.337Z,4.10
2018-04-18T10:36:50.677Z,3.93
2018-04-18T10:39:23.505Z,2.87
2018-04-18T10:42:03.056Z,3.40
2018-04-18T10:44:36.754Z,3.90
2018-04-18T10:47:09.638Z,3.20
2018-04-18T10:49:42.854Z,3.70
2018-04-18T10:52:16.240Z,3.50
2018-04-18T10:54:49.161Z,3.27
2018-04-18T10:57:22.486Z,3.70
2018-04-18T10:59:56.067Z,4.00
2018-04-18T11:02:28.526Z,4.23
2018-04-18T11:05:01.881Z,4.60
2018-04-18T11:07:34.373Z,4.40
2018-04-18T11:10:07.205Z,3.93
2018-04-18T11:12:41.363Z,4.03
2018-04-18T11:15:14.622Z,4.20
2018-04-18T11:17:47.524Z,3.90
2018-04-18T11:20:20.880Z,4.40
2018-04-18T11:22:54.127Z,7.93
2018-04-18T11:25:27.042Z,5.23
2018-04-18T11:27:59.759Z,5.40
2018-04-18T11:30:32.734Z,5.53
2018-04-18T11:33:05.231Z,4.50
2018-04-18T11:35:38.361Z,5.20
2018-04-18T11:38:11.163Z,4.50
2018-04-18T11:40:43.739Z,3.07
2018-04-18T11:43:17.116Z,3.87
2018-04-18T11:45:50.000Z,3.83
2018-04-18T11:48:24.103Z,4.70
2018-04-18T11:50:57.703Z,4.30
2018-04-18T11:53:30.555Z,4.87
2018-04-18T11:56:04.066Z,4.60
2018-04-18T11:58:36.737Z,5.20
2018-04-18T12:01:10.788Z,4.87
2018-04-18T12:03:43.624Z,5.37
2018-04-18T12:06:16.477Z,4.50
2018-04-18T12:08:49.625Z,5.77
2018-04-18T12:11:22.773Z,5.20
2018-04-18T12:13:56.057Z,4.33
2018-04-18T12:16:29.391Z,6.03
2018-04-18T12:19:02.375Z,5.90
2018-04-18T12:21:35.762Z,4.77
2018-04-18T12:24:08.508Z,5.43
2018-04-18T12:26:40.907Z,3.80
2018-04-18T12:29:13.480Z,4.20
2018-04-18T12:31:46.749Z,4.13
2018-04-18T12:34:20.148Z,4.30
2018-04-18T12:36:54.054Z,3.63
2018-04-18T12:39:27.047Z,6.33
2018-04-18T12:42:00.297Z,4.40
2018-04-18T12:44:32.769Z,4.13
2018-04-18T12:47:05.220Z,3.03
2018-04-18T12:49:37.766Z,5.07
2018-04-18T12:52:10.245Z,4.70
2018-04-18T12:54:43.680Z,5.50
2018-04-18T12:57:16.581Z,3.43
2018-04-18T12:59:49.143Z,5.27
2018-04-18T13:02:22.546Z,5.77
2018-04-18T13:04:56.159Z,5.00
2018-04-18T13:07:28.998Z,6.43
2018-04-18T13:10:01.489Z,3.60
2018-04-18T13:12:33.965Z,3.67
2018-04-18T13:15:07.281Z,3.87
2018-04-18T13:17:40.615Z,4.40
2018-04-18T13:20:13.497Z,3.80
2018-04-18T13:22:46.855Z,3.60
2018-04-18T13:25:20.565Z,3.00
2018-04-18T13:27:53.084Z,3.63
2018-04-18T13:30:26.415Z,4.50
2018-04-18T13:33:00.435Z,4.20
2018-04-18T13:35:33.613Z,5.60
2018-04-18T13:38:06.132Z,5.23
2018-04-18T13:40:38.917Z,5.40
2018-04-18T13:43:12.770Z,6.80
2018-04-18T13:45:46.097Z,5.67
2018-04-18T13:48:19.284Z,5.20
2018-04-18T13:50:52.792Z,4.03
2018-04-18T13:53:26.024Z,4.53
2018-04-18T13:55:58.606Z,5.60
2018-04-18T13:58:31.070Z,5.00
2018-04-18T14:01:04.470Z,3.63
2018-04-18T14:03:36.988Z,4.40
2018-04-18T14:06:09.630Z,4.60
2018-04-18T14:08:42.857Z,5.07
2018-04-18T14:11:15.629Z,7.37
2018-04-18T14:13:49.125Z,8.57
2018-04-18T14:16:21.868Z,8.97
2018-04-18T14:18:55.213Z,7.13
2018-04-18T14:21:27.833Z,6.40
2018-04-18T14:24:00.306Z,6.27
2018-04-18T14:26:33.175Z,6.37
2018-04-18T14:29:05.689Z,4.83
2018-04-18T14:31:38.126Z,5.13
2018-04-18T14:34:10.742Z,5.30
2018-04-18T14:36:43.439Z,5.33
2018-04-18T14:39:16.360Z,5.00
2018-04-18T14:41:49.762Z,4.50
2018-04-18T14:44:22.835Z,4.87
2018-04-18T14:46:56.078Z,4.73
2018-04-18T14:49:28.824Z,4.80
2018-04-18T14:52:01.825Z,4.47
2018-04-18T14:54:35.527Z,5.07
2018-04-18T14:57:08.713Z,4.60
2018-04-18T14:59:41.777Z,5.57
2018-04-18T15:02:15.596Z,5.03
2018-04-18T15:04:49.596Z,4.70
2018-04-18T15:07:22.153Z,4.53
2018-04-18T15:09:55.378Z,3.97
2018-04-18T15:12:28.119Z,5.20
2018-04-18T15:15:00.706Z,4.47
2018-04-18T15:17:33.065Z,5.00
2018-04-18T15:20:05.660Z,4.70
2018-04-18T15:22:39.113Z,3.50
2018-04-18T15:25:11.919Z,3.30
2018-04-18T15:27:44.435Z,4.20
2018-04-18T15:30:16.942Z,3.93
2018-04-18T15:32:49.459Z,3.83
2018-04-18T15:35:22.103Z,5.40
2018-04-18T15:37:54.751Z,4.90
2018-04-18T15:40:28.200Z,6.17
2018-04-18T15:43:02.331Z,6.60
2018-04-18T15:45:35.015Z,6.80
2018-04-18T15:48:08.371Z,6.17
2018-04-18T15:50:41.446Z,6.10
2018-04-18T15:53:14.647Z,5.20
2018-04-18T15:55:48.084Z,6.40
2018-04-18T15:58:21.321Z,8.20
2018-04-18T16:00:54.008Z,8.43
2018-04-18T16:03:26.836Z,8.00
2018-04-18T16:05:59.476Z,6.70
2018-04-18T16:08:33.623Z,7.80
2018-04-18T16:11:07.172Z,7.90
2018-04-18T16:13:41.102Z,8.80
2018-04-18T16:16:14.340Z,8.40
2018-04-18T16:18:46.833Z,9.80
2018-04-18T16:21:20.116Z,8.50
2018-04-18T16:23:52.800Z,10.80
2018-04-18T16:26:26.168Z,9.60
2018-04-18T16:28:58.983Z,12.03
2018-04-18T16:31:32.339Z,11.43
2018-04-18T16:34:05.161Z,10.40
2018-04-18T16:36:40.063Z,8.93
2018-04-18T16:39:12.957Z,9.03
2018-04-18T16:41:45.520Z,7.80
2018-04-18T16:44:18.963Z,8.97
2018-04-18T16:46:51.560Z,8.70
2018-04-18T16:49:25.414Z,7.30
2018-04-18T16:51:58.310Z,8.50
2018-04-18T16:54:31.323Z,8.20
2018-04-18T16:57:03.912Z,7.37
2018-04-18T16:59:36.431Z,9.17
2018-04-18T17:02:08.942Z,8.50
2018-04-18T17:04:41.326Z,7.90
2018-04-18T17:07:13.940Z,8.00
2018-04-18T17:09:48.377Z,7.73
2018-04-18T17:12:22.575Z,7.67
2018-04-18T17:14:55.897Z,10.63
2018-04-18T17:17:30.026Z,7.80
2018-04-18T17:20:03.139Z,8.70
2018-04-18T17:22:36.323Z,8.00
2018-04-18T17:25:09.252Z,7.37
2018-04-18T17:27:42.414Z,8.13
2018-04-18T17:30:15.104Z,7.37
2018-04-18T17:32:47.595Z,7.10
2018-04-18T17:35:20.938Z,6.77
2018-04-18T17:37:53.394Z,7.70
2018-04-18T17:40:25.894Z,8.33
2018-04-18T17:42:58.330Z,8.87
2018-04-18T17:45:31.943Z,7.53
2018-04-18T17:48:04.944Z,8.10
2018-04-18T17:50:38.243Z,9.03
2018-04-18T17:53:11.064Z,8.60
2018-04-18T17:55:44.334Z,6.50
2018-04-18T17:58:17.199Z,8.03
2018-04-18T18:00:49.879Z,9.47
2018-04-18T18:03:23.157Z,7.80
2018-04-18T18:05:56.278Z,9.20
2018-04-18T18:08:29.804Z,9.07
2018-04-18T18:11:02.223Z,9.73
2018-04-18T18:13:34.959Z,8.80
2018-04-18T18:16:08.317Z,8.70
2018-04-18T18:18:41.344Z,7.60
2018-04-18T18:21:16.243Z,5.83
2018-04-18T18:23:50.148Z,7.17
2018-04-18T18:26:23.218Z,6.47
2018-04-18T18:28:56.063Z,6.03
2018-04-18T18:31:29.198Z,9.80
2018-04-18T18:34:02.271Z,9.00
2018-04-18T18:36:34.718Z,7.60
2018-04-18T18:39:07.657Z,8.33
2018-04-18T18:41:40.429Z,6.50
2018-04-18T18:44:13.151Z,8.27
2018-04-18T18:46:47.328Z,8.10
2018-04-18T18:49:19.958Z,8.70
2018-04-18T18:51:53.245Z,8.50
2018-04-18T18:54:25.970Z,7.80
2018-04-18T18:56:58.732Z,9.70
2018-04-18T18:59:32.582Z,7.00
2018-04-18T19:02:05.713Z,7.17
2018-04-18T19:04:38.379Z,7.43
2018-04-18T19:07:10.997Z,7.90
2018-04-18T19:09:43.607Z,7.67
2018-04-18T19:12:16.561Z,8.57
2018-04-18T19:14:49.359Z,7.37
2018-04-18T19:17:21.939Z,8.20
2018-04-18T19:19:54.819Z,8.20
2018-04-18T19:22:27.712Z,7.20
2018-04-18T19:25:01.180Z,8.67
2018-04-18T19:27:34.356Z,7.90
2018-04-18T19:30:07.503Z,9.67
2018-04-18T19:32:41.052Z,9.13
2018-04-18T19:35:13.732Z,8.80
2018-04-18T19:37:46.613Z,9.37
2018-04-18T19:40:20.113Z,8.50
2018-04-18T19:42:54.005Z,8.30
2018-04-18T19:45:27.024Z,9.20
2018-04-18T19:48:00.535Z,9.50
2018-04-18T19:50:33.430Z,10.77
2018-04-18T19:53:07.337Z,9.13
2018-04-18T19:55:39.853Z,10.43
2018-04-18T19:58:13.918Z,11.50
2018-04-18T20:00:46.702Z,10.83
2018-04-18T20:03:19.347Z,9.73
2018-04-18T20:05:53.402Z,7.90
2018-04-18T20:08:26.082Z,8.07
2018-04-18T20:10:58.721Z,7.17
2018-04-18T20:13:31.491Z,9.23
2018-04-18T20:16:04.285Z,8.20
2018-04-18T20:18:36.999Z,7.67
2018-04-18T20:21:10.513Z,7.10
2018-04-18T20:23:43.055Z,6.23
2018-04-18T20:26:15.893Z,6.97
2018-04-18T20:28:49.314Z,6.30
2018-04-18T20:31:22.597Z,6.20
2018-04-18T20:33:55.772Z,6.80
2018-04-18T20:36:37.651Z,5.90
2018-04-18T20:39:10.573Z,5.97
2018-04-18T20:41:57.948Z,7.10
2018-04-18T20:44:31.327Z,6.23
2018-04-18T20:47:03.920Z,6.07
2018-04-18T20:49:37.197Z,7.43
2018-04-18T20:52:10.488Z,6.60
2018-04-18T20:54:44.809Z,6.87
2018-04-18T20:57:18.975Z,6.53
2018-04-18T20:59:51.797Z,6.63
2018-04-18T21:02:24.495Z,6.60
2018-04-18T21:04:57.178Z,6.37
2018-04-18T21:07:30.973Z,7.30
2018-04-18T21:10:03.952Z,6.40
2018-04-18T21:12:36.459Z,6.87
2018-04-18T21:15:09.345Z,6.73
2018-04-18T21:17:41.943Z,5.93
2018-04-18T21:20:14.602Z,7.90
2018-04-18T21:22:48.705Z,6.50
2018-04-18T21:25:21.352Z,7.23
2018-04-18T21:27:54.746Z,7.77
2018-04-18T21:30:32.531Z,7.37
2018-04-18T21:33:06.387Z,7.50
2018-04-18T21:35:39.787Z,7.70
2018-04-18T21:38:12.570Z,7.97
2018-04-18T21:40:47.716Z,6.83
2018-04-18T21:43:21.331Z,7.47
2018-04-18T21:45:53.896Z,7.50
2018-04-18T21:48:26.334Z,7.07
2018-04-18T21:50:59.609Z,8.23
2018-04-18T21:53:32.514Z,7.23
2018-04-18T21:56:05.083Z,8.20
2018-04-18T21:58:38.187Z,7.47
2018-04-18T22:13:30.484Z,6.70
2018-04-18T22:18:45.131Z,7.30
2018-04-18T22:21:18.078Z,6.37
2018-04-18T22:23:51.339Z,7.03
2018-04-18T22:26:24.151Z,7.40
2018-04-18T22:28:57.896Z,6.63
2018-04-18T22:31:30.688Z,7.60
2018-04-18T22:34:03.276Z,7.20
2018-04-18T22:36:37.425Z,6.23
2018-04-18T22:39:10.177Z,6.83
2018-04-18T22:41:42.663Z,6.63
2018-04-18T22:44:15.089Z,7.33
2018-04-18T22:46:48.209Z,7.47
2018-04-18T22:49:21.793Z,7.67
2018-04-18T22:51:54.575Z,6.80
2018-04-18T22:54:27.035Z,6.80
2018-04-18T22:56:59.673Z,7.70
2018-04-18T22:59:32.094Z,6.97
2018-04-18T23:02:05.368Z,6.60
2018-04-18T23:04:38.259Z,7.40
2018-04-18T23:07:10.682Z,8.17
2018-04-18T23:09:43.202Z,7.97
2018-04-18T23:12:22.841Z,7.50
2018-04-18T23:14:56.120Z,8.10
2018-04-18T23:17:28.734Z,7.43
2018-04-18T23:20:01.206Z,8.17
2018-04-18T23:22:33.744Z,8.33
2018-04-18T23:25:06.242Z,7.57
2018-04-18T23:27:39.265Z,8.13
2018-04-18T23:30:12.200Z,8.10
2018-04-18T23:32:44.801Z,8.40
2018-04-18T23:35:17.411Z,7.43
2018-04-18T23:37:50.129Z,7.30
2018-04-18T23:40:23.169Z,8.20
2018-04-18T23:42:55.686Z,7.37
2018-04-18T23:45:28.986Z,8.50
2018-04-18T23:48:01.773Z,8.90
2018-04-18T23:50:35.124Z,8.70
2018-04-18T23:53:07.868Z,7.60
2018-04-18T23:55:40.384Z,8.07
2018-04-18T23:58:13.492Z,7.90
